sensor_id;sensor_type;location;lat;lon;timestamp;P1;durP1;ratioP1;P2;durP2;ratioP2
37781;SDS011;23621;50.878;4.584;2023-02-17T00:00:59;5.45;;;4.95;;
37781;SDS011;23621;50.878;4.584;2023-02-17T00:03:26;5.88;;;5.38;;
37781;SDS011;23621;50.878;4.584;2023-02-17T00:05:53;5.88;;;5.38;;
37781;SDS011;23621;50.878;4.584;2023-02-17T00:08:20;5.80;;;5.28;;
37781;SDS011;23621;50.878;4.584;2023-02-17T00:10:56;5.82;;;5.30;;
37781;SDS011;23621;50.878;4.584;2023-02-17T00:13:25;5.53;;;5.10;;
37781;SDS011;23621;50.878;4.584;2023-02-17T00:15:52;5.40;;;4.90;;
37781;SDS011;23621;50.878;4.584;2023-02-17T00:18:19;5.30;;;4.80;;
37781;SDS011;23621;50.878;4.584;2023-02-17T00:20:46;6.22;;;5.63;;
37781;SDS011;23621;50.878;4.584;2023-02-17T00:23:13;5.72;;;5.15;;
37781;SDS011;23621;50.878;4.584;2023-02-17T00:25:40;5.78;;;5.28;;
37781;SDS011;23621;50.878;4.584;2023-02-17T00:28:07;5.70;;;5.10;;
37781;SDS011;23621;50.878;4.584;2023-02-17T00:30:35;5.72;;;5.13;;
37781;SDS011;23621;50.878;4.584;2023-02-17T00:33:04;5.50;;;5.00;;
37781;SDS011;23621;50.878;4.584;2023-02-17T00:35:31;5.70;;;5.20;;
37781;SDS011;23621;50.878;4.584;2023-02-17T00:37:58;6.03;;;5.43;;
37781;SDS011;23621;50.878;4.584;2023-02-17T00:40:25;5.75;;;5.22;;
37781;SDS011;23621;50.878;4.584;2023-02-17T00:42:52;5.53;;;5.03;;
37781;SDS011;23621;50.878;4.584;2023-02-17T00:45:20;6.50;;;5.90;;
37781;SDS011;23621;50.878;4.584;2023-02-17T00:47:47;5.60;;;5.15;;
37781;SDS011;23621;50.878;4.584;2023-02-17T00:50:14;5.90;;;5.40;;
37781;SDS011;23621;50.878;4.584;2023-02-17T00:52:41;6.15;;;5.15;;
37781;SDS011;23621;50.878;4.584;2023-02-17T00:55:08;5.90;;;5.40;;
37781;SDS011;23621;50.878;4.584;2023-02-17T00:57:35;5.78;;;5.28;;
37781;SDS011;23621;50.878;4.584;2023-02-17T01:00:02;5.70;;;5.20;;
37781;SDS011;23621;50.878;4.584;2023-02-17T01:02:31;6.30;;;5.70;;
37781;SDS011;23621;50.878;4.584;2023-02-17T01:04:59;6.05;;;5.45;;
37781;SDS011;23621;50.878;4.584;2023-02-17T01:07:26;5.15;;;4.75;;
37781;SDS011;23621;50.878;4.584;2023-02-17T01:09:53;5.53;;;5.03;;
37781;SDS011;23621;50.878;4.584;2023-02-17T01:12:19;5.97;;;5.47;;
37781;SDS011;23621;50.878;4.584;2023-02-17T01:14:47;5.15;;;4.75;;
37781;SDS011;23621;50.878;4.584;2023-02-17T01:17:14;5.30;;;4.80;;
37781;SDS011;23621;50.878;4.584;2023-02-17T01:19:41;5.07;;;4.57;;
37781;SDS011;23621;50.878;4.584;2023-02-17T01:22:08;4.90;;;4.50;;
37781;SDS011;23621;50.878;4.584;2023-02-17T01:24:37;5.20;;;4.70;;
37781;SDS011;23621;50.878;4.584;2023-02-17T01:27:04;5.55;;;4.53;;
37781;SDS011;23621;50.878;4.584;2023-02-17T01:29:31;4.78;;;4.22;;
37781;SDS011;23621;50.878;4.584;2023-02-17T01:31:58;4.35;;;3.95;;
37781;SDS011;23621;50.878;4.584;2023-02-17T01:34:25;3.97;;;3.63;;
37781;SDS011;23621;50.878;4.584;2023-02-17T01:36:52;4.10;;;3.70;;
37781;SDS011;23621;50.878;4.584;2023-02-17T01:39:19;3.88;;;3.58;;
37781;SDS011;23621;50.878;4.584;2023-02-17T01:41:46;3.65;;;3.35;;
37781;SDS011;23621;50.878;4.584;2023-02-17T01:44:18;3.97;;;3.58;;
37781;SDS011;23621;50.878;4.584;2023-02-17T01:46:49;3.92;;;3.53;;
37781;SDS011;23621;50.878;4.584;2023-02-17T01:49:26;3.97;;;3.67;;
37781;SDS011;23621;50.878;4.584;2023-02-17T01:52:00;4.47;;;3.63;;
37781;SDS011;23621;50.878;4.584;2023-02-17T01:54:36;4.22;;;3.83;;
37781;SDS011;23621;50.878;4.584;2023-02-17T01:57:09;5.72;;;4.28;;
37781;SDS011;23621;50.878;4.584;2023-02-17T01:59:38;5.25;;;4.45;;
37781;SDS011;23621;50.878;4.584;2023-02-17T02:02:06;4.28;;;3.88;;
37781;SDS011;23621;50.878;4.584;2023-02-17T02:04:35;6.40;;;4.78;;
37781;SDS011;23621;50.878;4.584;2023-02-17T02:07:04;5.65;;;5.15;;
37781;SDS011;23621;50.878;4.584;2023-02-17T02:09:36;6.88;;;5.10;;
37781;SDS011;23621;50.878;4.584;2023-02-17T02:14:58;5.40;;;4.53;;
37781;SDS011;23621;50.878;4.584;2023-02-17T02:23:02;5.07;;;4.57;;
37781;SDS011;23621;50.878;4.584;2023-02-17T02:34:06;5.75;;;4.50;;
37781;SDS011;23621;50.878;4.584;2023-02-17T02:36:38;5.88;;;4.07;;
37781;SDS011;23621;50.878;4.584;2023-02-17T02:39:20;5.03;;;3.97;;
37781;SDS011;23621;50.878;4.584;2023-02-17T02:41:52;5.78;;;3.97;;
37781;SDS011;23621;50.878;4.584;2023-02-17T02:44:26;4.55;;;3.80;;
37781;SDS011;23621;50.878;4.584;2023-02-17T02:47:00;4.57;;;4.18;;
37781;SDS011;23621;50.878;4.584;2023-02-17T02:49:47;4.53;;;4.13;;
37781;SDS011;23621;50.878;4.584;2023-02-17T02:52:15;4.25;;;3.85;;
37781;SDS011;23621;50.878;4.584;2023-02-17T02:55:11;4.78;;;4.07;;
37781;SDS011;23621;50.878;4.584;2023-02-17T03:00:31;4.88;;;4.43;;
37781;SDS011;23621;50.878;4.584;2023-02-17T03:03:07;5.07;;;4.22;;
37781;SDS011;23621;50.878;4.584;2023-02-17T03:10:57;5.20;;;3.58;;
37781;SDS011;23621;50.878;4.584;2023-02-17T03:13:26;5.72;;;4.40;;
37781;SDS011;23621;50.878;4.584;2023-02-17T03:15:53;6.93;;;4.63;;
37781;SDS011;23621;50.878;4.584;2023-02-17T03:18:20;4.78;;;4.22;;
37781;SDS011;23621;50.878;4.584;2023-02-17T03:20:52;5.68;;;4.70;;
37781;SDS011;23621;50.878;4.584;2023-02-17T03:23:21;4.78;;;4.22;;
37781;SDS011;23621;50.878;4.584;2023-02-17T03:25:48;4.85;;;4.35;;
37781;SDS011;23621;50.878;4.584;2023-02-17T03:28:15;5.03;;;4.53;;
37781;SDS011;23621;50.878;4.584;2023-02-17T03:30:42;6.38;;;4.68;;
37781;SDS011;23621;50.878;4.584;2023-02-17T03:33:09;6.20;;;4.53;;
37781;SDS011;23621;50.878;4.584;2023-02-17T03:35:36;5.93;;;4.75;;
37781;SDS011;23621;50.878;4.584;2023-02-17T03:38:03;5.40;;;4.20;;
37781;SDS011;23621;50.878;4.584;2023-02-17T03:40:30;4.90;;;4.40;;
37781;SDS011;23621;50.878;4.584;2023-02-17T03:42:57;6.03;;;4.70;;
37781;SDS011;23621;50.878;4.584;2023-02-17T03:45:24;5.13;;;4.13;;
37781;SDS011;23621;50.878;4.584;2023-02-17T03:47:51;4.22;;;3.83;;
37781;SDS011;23621;50.878;4.584;2023-02-17T03:50:18;5.57;;;4.18;;
37781;SDS011;23621;50.878;4.584;2023-02-17T03:52:45;4.85;;;4.32;;
37781;SDS011;23621;50.878;4.584;2023-02-17T03:55:11;4.35;;;3.95;;
37781;SDS011;23621;50.878;4.584;2023-02-17T03:57:38;5.85;;;4.18;;
37781;SDS011;23621;50.878;4.584;2023-02-17T04:00:06;4.32;;;3.90;;
37781;SDS011;23621;50.878;4.584;2023-02-17T04:02:34;5.60;;;4.00;;
37781;SDS011;23621;50.878;4.584;2023-02-17T04:05:01;5.22;;;4.40;;
37781;SDS011;23621;50.878;4.584;2023-02-17T04:07:28;4.82;;;4.10;;
37781;SDS011;23621;50.878;4.584;2023-02-17T04:09:55;4.30;;;3.88;;
37781;SDS011;23621;50.878;4.584;2023-02-17T04:12:22;7.03;;;4.43;;
37781;SDS011;23621;50.878;4.584;2023-02-17T04:14:49;4.25;;;3.85;;
37781;SDS011;23621;50.878;4.584;2023-02-17T04:17:16;4.63;;;3.92;;
37781;SDS011;23621;50.878;4.584;2023-02-17T04:19:43;5.43;;;4.13;;
37781;SDS011;23621;50.878;4.584;2023-02-17T04:22:10;6.25;;;3.80;;
37781;SDS011;23621;50.878;4.584;2023-02-17T04:24:37;5.60;;;3.65;;
37781;SDS011;23621;50.878;4.584;2023-02-17T04:27:04;4.60;;;4.07;;
37781;SDS011;23621;50.878;4.584;2023-02-17T04:29:31;4.82;;;3.95;;
37781;SDS011;23621;50.878;4.584;2023-02-17T04:31:58;6.40;;;3.90;;
37781;SDS011;23621;50.878;4.584;2023-02-17T04:34:25;4.30;;;3.72;;
37781;SDS011;23621;50.878;4.584;2023-02-17T04:36:52;6.22;;;4.38;;
37781;SDS011;23621;50.878;4.584;2023-02-17T04:39:19;4.30;;;3.85;;
37781;SDS011;23621;50.878;4.584;2023-02-17T04:41:46;4.60;;;4.20;;
37781;SDS011;23621;50.878;4.584;2023-02-17T04:44:13;3.88;;;3.58;;
37781;SDS011;23621;50.878;4.584;2023-02-17T04:46:40;4.93;;;4.18;;
37781;SDS011;23621;50.878;4.584;2023-02-17T04:49:07;4.75;;;3.95;;
37781;SDS011;23621;50.878;4.584;2023-02-17T04:51:34;4.45;;;4.03;;
37781;SDS011;23621;50.878;4.584;2023-02-17T04:54:01;4.32;;;3.85;;
37781;SDS011;23621;50.878;4.584;2023-02-17T04:56:28;4.93;;;4.30;;
37781;SDS011;23621;50.878;4.584;2023-02-17T04:58:55;4.60;;;3.92;;
37781;SDS011;23621;50.878;4.584;2023-02-17T05:01:22;4.80;;;4.22;;
37781;SDS011;23621;50.878;4.584;2023-02-17T05:03:49;4.95;;;4.22;;
37781;SDS011;23621;50.878;4.584;2023-02-17T05:06:16;5.00;;;4.47;;
37781;SDS011;23621;50.878;4.584;2023-02-17T05:08:43;5.00;;;4.50;;
37781;SDS011;23621;50.878;4.584;2023-02-17T05:11:10;5.50;;;4.70;;
37781;SDS011;23621;50.878;4.584;2023-02-17T05:13:36;4.57;;;4.05;;
37781;SDS011;23621;50.878;4.584;2023-02-17T05:16:03;4.30;;;3.65;;
37781;SDS011;23621;50.878;4.584;2023-02-17T05:18:31;5.30;;;4.18;;
37781;SDS011;23621;50.878;4.584;2023-02-17T05:20:58;4.60;;;4.07;;
37781;SDS011;23621;50.878;4.584;2023-02-17T05:23:25;5.43;;;4.50;;
37781;SDS011;23621;50.878;4.584;2023-02-17T05:25:51;5.47;;;4.85;;
37781;SDS011;23621;50.878;4.584;2023-02-17T05:28:18;4.85;;;4.15;;
37781;SDS011;23621;50.878;4.584;2023-02-17T05:30:47;4.75;;;4.20;;
37781;SDS011;23621;50.878;4.584;2023-02-17T05:33:14;5.35;;;4.15;;
37781;SDS011;23621;50.878;4.584;2023-02-17T05:35:41;4.55;;;3.88;;
37781;SDS011;23621;50.878;4.584;2023-02-17T05:38:08;4.85;;;4.32;;
37781;SDS011;23621;50.878;4.584;2023-02-17T05:40:35;5.00;;;3.90;;
37781;SDS011;23621;50.878;4.584;2023-02-17T05:43:02;5.13;;;3.88;;
37781;SDS011;23621;50.878;4.584;2023-02-17T05:45:29;4.82;;;3.90;;
37781;SDS011;23621;50.878;4.584;2023-02-17T05:47:56;4.72;;;3.75;;
37781;SDS011;23621;50.878;4.584;2023-02-17T05:50:23;4.53;;;3.53;;
37781;SDS011;23621;50.878;4.584;2023-02-17T05:52:50;5.20;;;4.05;;
37781;SDS011;23621;50.878;4.584;2023-02-17T05:55:17;4.75;;;4.00;;
37781;SDS011;23621;50.878;4.584;2023-02-17T05:57:44;4.43;;;3.70;;
37781;SDS011;23621;50.878;4.584;2023-02-17T06:00:11;4.75;;;3.97;;
37781;SDS011;23621;50.878;4.584;2023-02-17T06:02:38;4.38;;;3.97;;
37781;SDS011;23621;50.878;4.584;2023-02-17T06:05:06;4.72;;;4.20;;
37781;SDS011;23621;50.878;4.584;2023-02-17T06:07:34;5.30;;;4.80;;
37781;SDS011;23621;50.878;4.584;2023-02-17T06:10:01;5.05;;;4.28;;
37781;SDS011;23621;50.878;4.584;2023-02-17T06:12:28;6.65;;;4.60;;
37781;SDS011;23621;50.878;4.584;2023-02-17T06:14:55;6.50;;;4.65;;
37781;SDS011;23621;50.878;4.584;2023-02-17T06:17:22;6.07;;;4.68;;
37781;SDS011;23621;50.878;4.584;2023-02-17T06:19:49;5.88;;;4.40;;
37781;SDS011;23621;50.878;4.584;2023-02-17T06:22:15;4.85;;;4.40;;
37781;SDS011;23621;50.878;4.584;2023-02-17T06:24:43;6.13;;;4.82;;
37781;SDS011;23621;50.878;4.584;2023-02-17T06:27:10;5.70;;;5.20;;
37781;SDS011;23621;50.878;4.584;2023-02-17T06:29:37;7.50;;;5.22;;
37781;SDS011;23621;50.878;4.584;2023-02-17T06:32:04;5.85;;;4.30;;
37781;SDS011;23621;50.878;4.584;2023-02-17T06:34:31;5.43;;;4.68;;
37781;SDS011;23621;50.878;4.584;2023-02-17T06:36:58;5.03;;;4.53;;
37781;SDS011;23621;50.878;4.584;2023-02-17T06:39:25;6.57;;;5.03;;
37781;SDS011;23621;50.878;4.584;2023-02-17T06:41:52;5.28;;;4.63;;
37781;SDS011;23621;50.878;4.584;2023-02-17T06:44:19;5.55;;;5.00;;
37781;SDS011;23621;50.878;4.584;2023-02-17T06:46:46;7.45;;;5.05;;
37781;SDS011;23621;50.878;4.584;2023-02-17T06:49:13;7.38;;;5.30;;
37781;SDS011;23621;50.878;4.584;2023-02-17T06:51:40;5.35;;;4.85;;
37781;SDS011;23621;50.878;4.584;2023-02-17T06:54:07;6.40;;;5.03;;
37781;SDS011;23621;50.878;4.584;2023-02-17T06:56:34;6.03;;;5.43;;
37781;SDS011;23621;50.878;4.584;2023-02-17T06:59:01;6.72;;;5.00;;
37781;SDS011;23621;50.878;4.584;2023-02-17T07:01:29;5.82;;;5.18;;
37781;SDS011;23621;50.878;4.584;2023-02-17T07:03:56;6.75;;;5.15;;
37781;SDS011;23621;50.878;4.584;2023-02-17T07:06:25;6.25;;;5.10;;
37781;SDS011;23621;50.878;4.584;2023-02-17T07:08:52;5.93;;;5.00;;
37781;SDS011;23621;50.878;4.584;2023-02-17T07:11:22;6.03;;;5.03;;
37781;SDS011;23621;50.878;4.584;2023-02-17T07:13:49;6.40;;;5.28;;
37781;SDS011;23621;50.878;4.584;2023-02-17T07:16:16;5.68;;;5.13;;
37781;SDS011;23621;50.878;4.584;2023-02-17T07:18:43;6.18;;;4.97;;
37781;SDS011;23621;50.878;4.584;2023-02-17T07:21:10;5.75;;;5.18;;
37781;SDS011;23621;50.878;4.584;2023-02-17T07:23:37;6.40;;;4.88;;
37781;SDS011;23621;50.878;4.584;2023-02-17T07:26:05;6.07;;;4.43;;
37781;SDS011;23621;50.878;4.584;2023-02-17T07:28:34;5.03;;;4.53;;
37781;SDS011;23621;50.878;4.584;2023-02-17T07:33:37;5.05;;;4.22;;
37781;SDS011;23621;50.878;4.584;2023-02-17T07:36:11;5.57;;;4.85;;
37781;SDS011;23621;50.878;4.584;2023-02-17T07:38:40;4.82;;;4.05;;
37781;SDS011;23621;50.878;4.584;2023-02-17T07:41:09;7.60;;;5.28;;
37781;SDS011;23621;50.878;4.584;2023-02-17T07:43:38;5.93;;;4.97;;
37781;SDS011;23621;50.878;4.584;2023-02-17T07:46:05;7.22;;;5.28;;
37781;SDS011;23621;50.878;4.584;2023-02-17T07:48:33;7.60;;;6.10;;
37781;SDS011;23621;50.878;4.584;2023-02-17T07:51:04;5.50;;;4.72;;
37781;SDS011;23621;50.878;4.584;2023-02-17T07:53:33;7.53;;;5.05;;
37781;SDS011;23621;50.878;4.584;2023-02-17T07:56:01;6.07;;;4.65;;
37781;SDS011;23621;50.878;4.584;2023-02-17T07:58:33;6.72;;;4.53;;
37781;SDS011;23621;50.878;4.584;2023-02-17T08:01:09;5.38;;;4.82;;
37781;SDS011;23621;50.878;4.584;2023-02-17T08:03:38;7.30;;;5.10;;
37781;SDS011;23621;50.878;4.584;2023-02-17T08:06:12;6.22;;;4.93;;
37781;SDS011;23621;50.878;4.584;2023-02-17T08:08:43;4.97;;;4.47;;
37781;SDS011;23621;50.878;4.584;2023-02-17T08:11:29;6.35;;;4.72;;
37781;SDS011;23621;50.878;4.584;2023-02-17T08:14:15;5.53;;;4.18;;
37781;SDS011;23621;50.878;4.584;2023-02-17T08:16:43;4.80;;;4.30;;
37781;SDS011;23621;50.878;4.584;2023-02-17T08:19:10;5.65;;;4.90;;
37781;SDS011;23621;50.878;4.584;2023-02-17T08:21:37;4.90;;;4.45;;
37781;SDS011;23621;50.878;4.584;2023-02-17T08:24:04;5.13;;;4.45;;
37781;SDS011;23621;50.878;4.584;2023-02-17T08:26:31;5.55;;;4.53;;
37781;SDS011;23621;50.878;4.584;2023-02-17T08:28:58;4.90;;;4.10;;
37781;SDS011;23621;50.878;4.584;2023-02-17T08:31:29;8.50;;;4.50;;
37781;SDS011;23621;50.878;4.584;2023-02-17T08:34:02;5.05;;;4.30;;
37781;SDS011;23621;50.878;4.584;2023-02-17T08:36:30;4.30;;;3.90;;
37781;SDS011;23621;50.878;4.584;2023-02-17T08:38:59;5.72;;;4.35;;
37781;SDS011;23621;50.878;4.584;2023-02-17T08:41:28;4.35;;;3.63;;
37781;SDS011;23621;50.878;4.584;2023-02-17T08:44:00;4.28;;;3.78;;
37781;SDS011;23621;50.878;4.584;2023-02-17T08:46:29;4.90;;;3.90;;
37781;SDS011;23621;50.878;4.584;2023-02-17T08:48:56;4.53;;;4.10;;
37781;SDS011;23621;50.878;4.584;2023-02-17T08:51:23;4.18;;;3.70;;
37781;SDS011;23621;50.878;4.584;2023-02-17T08:53:52;3.95;;;3.33;;
37781;SDS011;23621;50.878;4.584;2023-02-17T08:56:21;4.93;;;3.70;;
37781;SDS011;23621;50.878;4.584;2023-02-17T08:58:49;3.88;;;3.47;;
37781;SDS011;23621;50.878;4.584;2023-02-17T09:01:17;3.65;;;3.30;;
37781;SDS011;23621;50.878;4.584;2023-02-17T09:03:45;6.85;;;3.13;;
37781;SDS011;23621;50.878;4.584;2023-02-17T09:06:13;3.72;;;3.33;;
37781;SDS011;23621;50.878;4.584;2023-02-17T09:08:41;4.20;;;3.22;;
37781;SDS011;23621;50.878;4.584;2023-02-17T09:11:09;4.82;;;3.28;;
37781;SDS011;23621;50.878;4.584;2023-02-17T09:13:36;3.45;;;2.90;;
37781;SDS011;23621;50.878;4.584;2023-02-17T09:16:03;4.18;;;2.70;;
37781;SDS011;23621;50.878;4.584;2023-02-17T09:18:34;3.88;;;2.83;;
37781;SDS011;23621;50.878;4.584;2023-02-17T09:21:08;2.78;;;2.58;;
37781;SDS011;23621;50.878;4.584;2023-02-17T09:23:38;3.47;;;2.63;;
37781;SDS011;23621;50.878;4.584;2023-02-17T09:26:07;3.78;;;2.50;;
37781;SDS011;23621;50.878;4.584;2023-02-17T09:28:36;2.40;;;2.20;;
37781;SDS011;23621;50.878;4.584;2023-02-17T09:31:11;2.92;;;2.70;;
37781;SDS011;23621;50.878;4.584;2023-02-17T09:33:44;2.65;;;2.45;;
37781;SDS011;23621;50.878;4.584;2023-02-17T09:36:14;2.58;;;2.38;;
37781;SDS011;23621;50.878;4.584;2023-02-17T09:38:43;3.72;;;2.30;;
37781;SDS011;23621;50.878;4.584;2023-02-17T09:41:18;6.03;;;2.50;;
37781;SDS011;23621;50.878;4.584;2023-02-17T09:43:49;3.10;;;2.25;;
37781;SDS011;23621;50.878;4.584;2023-02-17T09:46:22;2.38;;;2.17;;
37781;SDS011;23621;50.878;4.584;2023-02-17T09:48:53;3.97;;;2.20;;
37781;SDS011;23621;50.878;4.584;2023-02-17T09:51:44;2.28;;;2.08;;
37781;SDS011;23621;50.878;4.584;2023-02-17T09:54:22;2.58;;;1.83;;
37781;SDS011;23621;50.878;4.584;2023-02-17T09:56:52;2.42;;;1.80;;
37781;SDS011;23621;50.878;4.584;2023-02-17T09:59:23;1.90;;;1.80;;
37781;SDS011;23621;50.878;4.584;2023-02-17T10:01:57;2.88;;;1.88;;
37781;SDS011;23621;50.878;4.584;2023-02-17T10:04:28;1.90;;;1.70;;
37781;SDS011;23621;50.878;4.584;2023-02-17T10:07:10;1.90;;;1.80;;
37781;SDS011;23621;50.878;4.584;2023-02-17T10:09:47;2.15;;;2.03;;
37781;SDS011;23621;50.878;4.584;2023-02-17T10:12:23;2.00;;;1.70;;
37781;SDS011;23621;50.878;4.584;2023-02-17T10:15:04;2.35;;;1.45;;
37781;SDS011;23621;50.878;4.584;2023-02-17T10:17:51;1.85;;;1.75;;
37781;SDS011;23621;50.878;4.584;2023-02-17T10:20:23;2.90;;;1.77;;
37781;SDS011;23621;50.878;4.584;2023-02-17T10:23:00;1.85;;;1.52;;
37781;SDS011;23621;50.878;4.584;2023-02-17T10:28:26;2.22;;;1.67;;
37781;SDS011;23621;50.878;4.584;2023-02-17T10:31:03;2.20;;;1.60;;
37781;SDS011;23621;50.878;4.584;2023-02-17T10:33:37;2.95;;;1.73;;
37781;SDS011;23621;50.878;4.584;2023-02-17T10:36:10;1.58;;;1.48;;
37781;SDS011;23621;50.878;4.584;2023-02-17T10:39:01;1.65;;;1.50;;
37781;SDS011;23621;50.878;4.584;2023-02-17T10:41:35;1.95;;;1.73;;
37781;SDS011;23621;50.878;4.584;2023-02-17T10:44:08;1.90;;;1.80;;
37781;SDS011;23621;50.878;4.584;2023-02-17T10:46:42;1.80;;;1.70;;
37781;SDS011;23621;50.878;4.584;2023-02-17T10:49:30;1.90;;;1.70;;
37781;SDS011;23621;50.878;4.584;2023-02-17T10:52:15;1.98;;;1.70;;
37781;SDS011;23621;50.878;4.584;2023-02-17T10:54:47;2.08;;;1.90;;
37781;SDS011;23621;50.878;4.584;2023-02-17T10:57:25;1.85;;;1.67;;
37781;SDS011;23621;50.878;4.584;2023-02-17T10:59:58;2.25;;;1.85;;
37781;SDS011;23621;50.878;4.584;2023-02-17T11:02:37;3.60;;;1.95;;
37781;SDS011;23621;50.878;4.584;2023-02-17T11:05:18;2.72;;;1.95;;
37781;SDS011;23621;50.878;4.584;2023-02-17T11:07:46;2.35;;;2.15;;
37781;SDS011;23621;50.878;4.584;2023-02-17T11:10:18;2.97;;;1.98;;
37781;SDS011;23621;50.878;4.584;2023-02-17T11:12:48;1.90;;;1.80;;
37781;SDS011;23621;50.878;4.584;2023-02-17T11:15:17;2.17;;;1.98;;
37781;SDS011;23621;50.878;4.584;2023-02-17T11:17:49;2.03;;;1.92;;
37781;SDS011;23621;50.878;4.584;2023-02-17T11:23:20;2.00;;;1.90;;
37781;SDS011;23621;50.878;4.584;2023-02-17T11:25:40;2.05;;;1.90;;
37781;SDS011;23621;50.878;4.584;2023-02-17T11:28:12;2.08;;;1.90;;
37781;SDS011;23621;50.878;4.584;2023-02-17T11:30:47;2.60;;;1.60;;
37781;SDS011;23621;50.878;4.584;2023-02-17T11:33:27;1.73;;;1.63;;
37781;SDS011;23621;50.878;4.584;2023-02-17T11:36:04;2.08;;;1.67;;
37781;SDS011;23621;50.878;4.584;2023-02-17T11:38:41;1.90;;;1.80;;
37781;SDS011;23621;50.878;4.584;2023-02-17T11:41:10;2.00;;;1.80;;
37781;SDS011;23621;50.878;4.584;2023-02-17T11:43:38;1.90;;;1.80;;
37781;SDS011;23621;50.878;4.584;2023-02-17T11:57:35;2.30;;;2.10;;
37781;SDS011;23621;50.878;4.584;2023-02-17T12:00:18;2.50;;;1.90;;
37781;SDS011;23621;50.878;4.584;2023-02-17T12:08:28;2.70;;;1.70;;
37781;SDS011;23621;50.878;4.584;2023-02-17T12:11:39;1.70;;;1.42;;
37781;SDS011;23621;50.878;4.584;2023-02-17T12:14:57;2.45;;;1.65;;
37781;SDS011;23621;50.878;4.584;2023-02-17T12:17:09;2.05;;;1.48;;
37781;SDS011;23621;50.878;4.584;2023-02-17T12:22:38;1.63;;;1.52;;
37781;SDS011;23621;50.878;4.584;2023-02-17T12:25:23;1.48;;;1.38;;
37781;SDS011;23621;50.878;4.584;2023-02-17T12:36:07;1.02;;;0.90;;
37781;SDS011;23621;50.878;4.584;2023-02-17T12:38:40;2.20;;;1.00;;
37781;SDS011;23621;50.878;4.584;2023-02-17T12:43:49;1.33;;;1.23;;
37781;SDS011;23621;50.878;4.584;2023-02-17T12:46:31;2.85;;;1.20;;
37781;SDS011;23621;50.878;4.584;2023-02-17T12:49:11;1.23;;;0.88;;
37781;SDS011;23621;50.878;4.584;2023-02-17T12:51:51;1.65;;;1.02;;
37781;SDS011;23621;50.878;4.584;2023-02-17T12:57:03;1.13;;;0.80;;
37781;SDS011;23621;50.878;4.584;2023-02-17T13:02:09;1.05;;;0.90;;
37781;SDS011;23621;50.878;4.584;2023-02-17T13:04:38;1.08;;;0.98;;
37781;SDS011;23621;50.878;4.584;2023-02-17T13:09:53;0.98;;;0.80;;
37781;SDS011;23621;50.878;4.584;2023-02-17T13:22:35;0.93;;;0.80;;
37781;SDS011;23621;50.878;4.584;2023-02-17T13:25:04;0.77;;;0.70;;
37781;SDS011;23621;50.878;4.584;2023-02-17T13:27:36;1.27;;;0.90;;
37781;SDS011;23621;50.878;4.584;2023-02-17T13:32:58;1.38;;;0.73;;
37781;SDS011;23621;50.878;4.584;2023-02-17T13:35:34;1.88;;;1.10;;
37781;SDS011;23621;50.878;4.584;2023-02-17T13:38:02;1.55;;;0.90;;
37781;SDS011;23621;50.878;4.584;2023-02-17T13:43:14;2.13;;;1.00;;
37781;SDS011;23621;50.878;4.584;2023-02-17T13:45:52;2.50;;;1.25;;
37781;SDS011;23621;50.878;4.584;2023-02-17T13:48:28;1.95;;;1.85;;
37781;SDS011;23621;50.878;4.584;2023-02-17T13:50:57;2.53;;;1.90;;
37781;SDS011;23621;50.878;4.584;2023-02-17T13:53:28;2.70;;;1.90;;
37781;SDS011;23621;50.878;4.584;2023-02-17T13:56:05;2.08;;;1.50;;
37781;SDS011;23621;50.878;4.584;2023-02-17T13:58:35;1.50;;;1.10;;
37781;SDS011;23621;50.878;4.584;2023-02-17T14:01:04;1.73;;;1.15;;
37781;SDS011;23621;50.878;4.584;2023-02-17T14:06:05;2.33;;;1.20;;
37781;SDS011;23621;50.878;4.584;2023-02-17T14:08:38;1.92;;;1.10;;
37781;SDS011;23621;50.878;4.584;2023-02-17T14:13:40;2.88;;;1.33;;
37781;SDS011;23621;50.878;4.584;2023-02-17T14:19:13;1.90;;;1.70;;
37781;SDS011;23621;50.878;4.584;2023-02-17T14:21:45;1.90;;;1.80;;
37781;SDS011;23621;50.878;4.584;2023-02-17T14:24:27;2.35;;;1.83;;
37781;SDS011;23621;50.878;4.584;2023-02-17T14:26:55;3.72;;;1.42;;
37781;SDS011;23621;50.878;4.584;2023-02-17T14:29:40;2.40;;;1.33;;
37781;SDS011;23621;50.878;4.584;2023-02-17T14:32:32;1.70;;;1.60;;
37781;SDS011;23621;50.878;4.584;2023-02-17T14:35:08;1.67;;;1.58;;
37781;SDS011;23621;50.878;4.584;2023-02-17T14:37:39;1.70;;;1.60;;
37781;SDS011;23621;50.878;4.584;2023-02-17T14:42:50;2.30;;;1.85;;
37781;SDS011;23621;50.878;4.584;2023-02-17T14:45:17;1.80;;;1.70;;
37781;SDS011;23621;50.878;4.584;2023-02-17T14:47:45;1.70;;;1.60;;
37781;SDS011;23621;50.878;4.584;2023-02-17T14:50:12;1.90;;;1.80;;
37781;SDS011;23621;50.878;4.584;2023-02-17T14:52:44;2.95;;;2.00;;
37781;SDS011;23621;50.878;4.584;2023-02-17T14:58:17;1.75;;;1.63;;
37781;SDS011;23621;50.878;4.584;2023-02-17T15:00:47;2.85;;;1.85;;
37781;SDS011;23621;50.878;4.584;2023-02-17T15:03:15;2.00;;;1.60;;
37781;SDS011;23621;50.878;4.584;2023-02-17T15:05:42;3.17;;;1.88;;
37781;SDS011;23621;50.878;4.584;2023-02-17T15:08:16;1.77;;;1.63;;
37781;SDS011;23621;50.878;4.584;2023-02-17T15:10:46;1.90;;;1.80;;
37781;SDS011;23621;50.878;4.584;2023-02-17T15:13:15;1.40;;;1.30;;
37781;SDS011;23621;50.878;4.584;2023-02-17T15:15:44;1.70;;;1.60;;
37781;SDS011;23621;50.878;4.584;2023-02-17T15:18:13;1.70;;;1.60;;
37781;SDS011;23621;50.878;4.584;2023-02-17T15:20:43;2.47;;;1.40;;
37781;SDS011;23621;50.878;4.584;2023-02-17T15:23:12;2.38;;;1.50;;
37781;SDS011;23621;50.878;4.584;2023-02-17T15:25:41;1.45;;;1.25;;
37781;SDS011;23621;50.878;4.584;2023-02-17T15:28:16;2.25;;;1.70;;
37781;SDS011;23621;50.878;4.584;2023-02-17T15:30:45;2.38;;;1.70;;
37781;SDS011;23621;50.878;4.584;2023-02-17T15:33:17;2.28;;;1.30;;
37781;SDS011;23621;50.878;4.584;2023-02-17T15:35:45;1.50;;;1.40;;
37781;SDS011;23621;50.878;4.584;2023-02-17T15:38:15;1.42;;;1.33;;
37781;SDS011;23621;50.878;4.584;2023-02-17T15:40:42;1.40;;;1.30;;
37781;SDS011;23621;50.878;4.584;2023-02-17T15:43:16;2.30;;;1.40;;
37781;SDS011;23621;50.878;4.584;2023-02-17T15:45:47;1.90;;;1.58;;
37781;SDS011;23621;50.878;4.584;2023-02-17T15:50:51;1.98;;;1.60;;
37781;SDS011;23621;50.878;4.584;2023-02-17T15:53:18;3.00;;;1.40;;
37781;SDS011;23621;50.878;4.584;2023-02-17T15:55:45;2.30;;;1.50;;
37781;SDS011;23621;50.878;4.584;2023-02-17T15:58:14;1.45;;;1.35;;
37781;SDS011;23621;50.878;4.584;2023-02-17T16:00:42;1.80;;;1.70;;
37781;SDS011;23621;50.878;4.584;2023-02-17T16:03:13;1.77;;;1.67;;
37781;SDS011;23621;50.878;4.584;2023-02-17T16:05:41;2.55;;;1.80;;
37781;SDS011;23621;50.878;4.584;2023-02-17T16:08:08;2.45;;;1.60;;
37781;SDS011;23621;50.878;4.584;2023-02-17T16:10:35;2.33;;;1.95;;
37781;SDS011;23621;50.878;4.584;2023-02-17T16:13:04;2.50;;;1.92;;
37781;SDS011;23621;50.878;4.584;2023-02-17T16:15:33;2.08;;;1.75;;
37781;SDS011;23621;50.878;4.584;2023-02-17T16:18:02;2.10;;;1.90;;
37781;SDS011;23621;50.878;4.584;2023-02-17T16:23:31;2.53;;;2.15;;
37781;SDS011;23621;50.878;4.584;2023-02-17T16:25:58;2.55;;;1.90;;
37781;SDS011;23621;50.878;4.584;2023-02-17T16:28:29;2.55;;;1.90;;
37781;SDS011;23621;50.878;4.584;2023-02-17T16:30:58;2.55;;;2.00;;
37781;SDS011;23621;50.878;4.584;2023-02-17T16:33:25;2.25;;;1.98;;
37781;SDS011;23621;50.878;4.584;2023-02-17T16:35:52;2.28;;;2.00;;
37781;SDS011;23621;50.878;4.584;2023-02-17T16:38:19;2.20;;;2.00;;
37781;SDS011;23621;50.878;4.584;2023-02-17T16:40:49;4.00;;;2.20;;
37781;SDS011;23621;50.878;4.584;2023-02-17T16:43:21;2.20;;;2.00;;
37781;SDS011;23621;50.878;4.584;2023-02-17T16:45:51;2.00;;;1.90;;
37781;SDS011;23621;50.878;4.584;2023-02-17T16:48:24;2.50;;;2.30;;
37781;SDS011;23621;50.878;4.584;2023-02-17T16:50:52;2.53;;;2.08;;
37781;SDS011;23621;50.878;4.584;2023-02-17T16:53:20;2.97;;;2.67;;